Search for airport 
image banner adimage banner adimage banner ad
image banner ad

PN15 - Greeley

Located in Coudersport, United States

ICAO - PN15, IATA -

Data provided by Airmate  

General information

Coordinates: N41°52'45" W77°57'0"
Elevation is 2300 feet MSL.
Magnetic variation is -11° East
View others Airports in Pennsylvania

Operational data

Special qualification required
Current time UTC:
Current local time:
METAR: KELZ 091256Z AUTO 00000KT 10SM CLR 04/03 A3003 RMK AO2 SLP184 T00440028
View NOTAMs / SUP AIP / TFR affecting this airport [VIEW]
Communications frequencies: [VIEW]

Runways:

RWY identifierQFULength (ft)Width (ft)SurfaceLDA (ft)
071850100GRASS
251850100GRASS

Airport contact information

Address: Coudersport United States

Satellite view of PN15